Time;durP1;ratioP1;P1;durP2;ratioP2;P2;SDS_P1;SDS_P2;PMS_P1;PMS_P2;Temp;Humidity;BMP_temperature;BMP_pressure;BME280_temperature;BME280_humidity;BME280_pressure;Samples;Min_cycle;Max_cycle;Signal;HPM_P1;HPM_P2
2022/09/10 00:01:03;;;;;;;3.33;1.20;;;14.80;94.10;;;;;;5031011;28;20038;-68
2022/09/10 00:03:29;;;;;;;4.30;0.88;;;14.80;94.30;;;;;;5018569;28;20026;-68
2022/09/10 00:05:54;;;;;;;3.35;0.98;;;14.70;94.50;;;;;;4999952;28;20026;-68
2022/09/10 00:08:20;;;;;;;3.83;1.10;;;14.80;94.30;;;;;;4999941;28;20415;-68
2022/09/10 00:10:50;;;;;;;5.55;1.10;;;14.70;94.60;;;;;;5032046;28;20026;-68
2022/09/10 00:13:19;;;;;;;5.68;1.20;;;14.70;94.40;;;;;;5017018;28;20314;-68
2022/09/10 00:15:48;;;;;;;5.63;1.08;;;14.70;94.60;;;;;;5036987;28;20032;-68
2022/09/10 00:18:15;;;;;;;5.22;1.10;;;14.70;94.40;;;;;;5039143;28;20040;-68
2022/09/10 00:20:49;;;;;;;4.43;1.25;;;14.70;94.30;;;;;;5031621;28;20113;-68
2022/09/10 00:23:17;;;;;;;3.38;1.00;;;14.70;94.50;;;;;;5019332;28;20034;-68
2022/09/10 00:25:47;;;;;;;3.45;1.35;;;14.70;94.50;;;;;;5019888;28;20100;-68
2022/09/10 00:28:14;;;;;;;4.90;1.20;;;14.60;94.60;;;;;;5036916;28;20422;-68
2022/09/10 00:30:45;;;;;;;3.40;0.90;;;14.60;94.80;;;;;;5019060;28;20018;-68
2022/09/10 00:33:12;;;;;;;5.50;1.38;;;14.60;95.00;;;;;;5013265;28;20112;-67
2022/09/10 00:35:39;;;;;;;3.63;1.00;;;14.50;95.10;;;;;;5031362;28;20391;-67
2022/09/10 00:38:08;;;;;;;3.08;1.00;;;14.60;95.00;;;;;;5007697;28;20049;-67
2022/09/10 00:40:34;;;;;;;3.40;1.00;;;14.60;95.00;;;;;;5025624;28;20839;-67
2022/09/10 00:43:05;;;;;;;3.00;0.90;;;14.50;95.20;;;;;;5001185;28;20034;-69
2022/09/10 00:45:35;;;;;;;7.20;1.25;;;14.50;95.40;;;;;;5023449;28;20072;-69
2022/09/10 00:48:06;;;;;;;4.13;1.05;;;14.50;95.30;;;;;;4999224;28;20136;-69
2022/09/10 00:50:37;;;;;;;4.13;0.90;;;14.50;95.30;;;;;;5013432;28;20026;-68
2022/09/10 00:53:15;;;;;;;3.15;0.88;;;14.50;95.30;;;;;;5016296;28;20114;-68
2022/09/10 00:55:49;;;;;;;4.53;0.93;;;14.50;95.30;;;;;;5019650;28;20026;-68
2022/09/10 00:58:17;;;;;;;;;;;14.50;95.40;;;;;;5017658;28;20327;-68
2022/09/10 01:00:43;;;;;;;3.38;1.00;;;14.60;95.00;;;;;;5016561;28;19909;-68
2022/09/10 01:03:11;;;;;;;3.15;0.98;;;14.70;94.80;;;;;;5018239;28;20418;-68
2022/09/10 01:05:42;;;;;;;5.30;1.13;;;14.80;94.70;;;;;;5009568;28;20030;-68
2022/09/10 01:08:15;;;;;;;6.20;1.15;;;14.70;95.00;;;;;;5015619;28;20030;-68
2022/09/10 01:11:01;;;;;;;4.90;1.25;;;14.80;94.60;;;;;;5018271;28;20034;-68
2022/09/10 01:13:50;;;;;;;5.18;1.00;;;14.80;94.60;;;;;;5013637;28;20034;-68
2022/09/10 01:16:19;;;;;;;4.43;0.90;;;14.80;94.50;;;;;;5014824;28;20061;-68
2022/09/10 01:19:16;;;;;;;4.65;0.98;;;14.90;94.10;;;;;;5009345;28;20025;-68
2022/09/10 01:22:02;;;;;;;3.35;0.93;;;14.90;93.90;;;;;;5020360;28;20061;-68
2022/09/10 01:24:31;;;;;;;3.33;0.90;;;15.00;93.90;;;;;;5032461;28;20031;-68
2022/09/10 01:27:22;;;;;;;2.22;0.80;;;14.90;94.00;;;;;;5002121;28;20041;-68
2022/09/10 01:30:18;;;;;;;5.20;1.10;;;14.90;94.00;;;;;;5025683;28;20025;-67
2022/09/10 01:32:54;;;;;;;2.88;1.10;;;14.90;93.60;;;;;;5020528;28;20041;-68
2022/09/10 01:35:42;;;;;;;4.13;1.05;;;14.90;93.30;;;;;;5018553;28;20026;-68
2022/09/10 01:38:22;;;;;;;4.18;1.00;;;15.00;93.10;;;;;;5012146;28;20382;-68
2022/09/10 01:40:48;;;;;;;3.78;1.17;;;15.00;93.40;;;;;;5016425;28;20318;-68
2022/09/10 01:43:14;;;;;;;4.43;1.35;;;14.90;93.70;;;;;;5020015;28;20095;-68
2022/09/10 01:45:53;;;;;;;3.92;1.10;;;14.90;93.70;;;;;;5013342;28;20403;-68
2022/09/10 01:48:42;;;;;;;4.72;0.93;;;14.90;94.40;;;;;;5011984;28;20022;-68
2022/09/10 01:51:30;;;;;;;2.17;0.80;;;14.80;94.40;;;;;;5007262;28;20026;-68
2022/09/10 01:54:10;;;;;;;2.72;1.05;;;14.80;94.90;;;;;;5023730;28;20371;-68
2022/09/10 01:57:06;;;;;;;4.00;1.52;;;14.70;95.20;;;;;;4998454;28;20026;-68
2022/09/10 01:59:43;;;;;;;6.38;1.08;;;14.70;95.20;;;;;;5009735;28;20031;-68
2022/09/10 02:02:18;;;;;;;5.47;1.33;;;14.70;95.40;;;;;;5009274;28;20033;-68
2022/09/10 02:04:46;;;;;;;4.45;1.00;;;14.70;95.30;;;;;;4996039;28;20064;-68
2022/09/10 02:07:14;;;;;;;3.55;0.90;;;14.80;95.30;;;;;;4999444;28;20045;-68
2022/09/10 02:09:41;;;;;;;2.90;0.90;;;14.60;95.80;;;;;;5011381;28;20026;-67
2022/09/10 02:12:06;;;;;;;3.63;0.90;;;14.40;97.00;;;;;;5011295;28;20100;-68
2022/09/10 02:14:32;;;;;;;6.97;1.08;;;14.30;97.30;;;;;;5014775;28;20437;-68
2022/09/10 02:16:59;;;;;;;3.35;1.05;;;14.20;97.50;;;;;;5011039;28;20362;-68
2022/09/10 02:19:26;;;;;;;4.00;1.20;;;14.10;97.60;;;;;;4997929;28;20030;-67
2022/09/10 02:21:55;;;;;;;4.13;1.17;;;14.10;97.60;;;;;;5010171;28;20429;-68
2022/09/10 02:24:21;;;;;;;3.95;1.02;;;14.10;97.60;;;;;;5002821;28;20101;-68
2022/09/10 02:26:48;;;;;;;6.80;1.30;;;14.10;97.70;;;;;;5019441;28;20423;-68
2022/09/10 02:29:15;;;;;;;2.33;0.90;;;14.10;97.50;;;;;;4999895;28;20518;-68
2022/09/10 02:31:42;;;;;;;3.78;1.00;;;14.10;97.30;;;;;;5006700;28;20026;-67
2022/09/10 02:34:09;;;;;;;5.50;1.17;;;14.10;97.50;;;;;;5018887;28;20097;-68
2022/09/10 02:36:35;;;;;;;8.10;1.30;;;14.10;97.50;;;;;;5020183;28;20021;-68
2022/09/10 02:39:03;;;;;;;4.88;1.00;;;14.00;97.70;;;;;;5015341;28;20038;-68
2022/09/10 02:41:31;;;;;;;4.53;1.20;;;14.00;97.80;;;;;;5005239;28;20445;-68
2022/09/10 02:44:00;;;;;;;3.85;1.23;;;14.00;97.70;;;;;;5013976;28;20030;-68
2022/09/10 02:46:27;;;;;;;5.32;1.45;;;13.90;98.00;;;;;;5015881;28;20052;-68
2022/09/10 02:48:54;;;;;;;3.53;1.10;;;13.90;97.90;;;;;;5001562;28;20359;-68
2022/09/10 02:51:26;;;;;;;3.97;1.20;;;13.90;97.90;;;;;;5004733;28;20048;-67
2022/09/10 02:53:51;;;;;;;2.30;1.00;;;13.80;98.00;;;;;;5001787;28;20034;-68
2022/09/10 02:56:19;;;;;;;6.30;1.40;;;13.70;98.00;;;;;;5004233;28;20034;-68
2022/09/10 02:58:47;;;;;;;4.03;1.25;;;13.70;97.80;;;;;;5005558;28;20081;-68
2022/09/10 03:01:17;;;;;;;6.15;1.60;;;13.70;97.80;;;;;;5001337;28;20057;-68
2022/09/10 03:03:54;;;;;;;7.22;1.38;;;13.70;98.00;;;;;;5003318;28;20080;-68
2022/09/10 03:06:22;;;;;;;5.20;1.20;;;13.60;97.90;;;;;;5022113;28;20101;-68
2022/09/10 03:08:48;;;;;;;2.78;1.05;;;13.60;98.00;;;;;;5019032;28;20407;-68
2022/09/10 03:11:22;;;;;;;6.10;1.35;;;13.60;97.80;;;;;;5011510;28;20018;-68
2022/09/10 03:13:52;;;;;;;2.70;1.20;;;13.50;97.70;;;;;;5013500;28;20529;-68
2022/09/10 03:16:18;;;;;;;3.85;1.20;;;13.40;97.50;;;;;;5005962;28;20066;-68
2022/09/10 03:18:44;;;;;;;5.18;1.33;;;13.30;96.60;;;;;;4995786;28;20027;-68
2022/09/10 03:21:17;;;;;;;4.75;1.20;;;13.20;97.00;;;;;;5011564;28;20153;-68
2022/09/10 03:23:48;;;;;;;4.97;1.23;;;13.10;96.50;;;;;;4999811;28;20036;-68
2022/09/10 03:26:21;;;;;;;3.53;1.10;;;13.10;96.20;;;;;;5000509;28;20038;-68
2022/09/10 03:28:48;;;;;;;3.05;1.00;;;13.00;96.20;;;;;;4995691;28;20026;-68
2022/09/10 03:31:15;;;;;;;3.05;1.27;;;13.00;96.30;;;;;;5020391;28;20299;-68
2022/09/10 03:33:41;;;;;;;3.85;1.20;;;13.00;96.20;;;;;;5000094;28;20034;-67
2022/09/10 03:36:12;;;;;;;3.05;0.93;;;12.90;96.00;;;;;;5010379;28;20027;-69
2022/09/10 03:38:38;;;;;;;3.03;1.10;;;12.80;95.10;;;;;;5011298;28;20026;-69
2022/09/10 03:41:03;;;;;;;4.93;2.08;;;12.80;95.90;;;;;;5015508;28;20033;-69
2022/09/10 03:43:30;;;;;;;3.58;1.30;;;12.90;95.00;;;;;;5017643;28;20036;-68
2022/09/10 03:45:58;;;;;;;4.88;1.10;;;12.80;95.70;;;;;;5029692;28;20026;-68
2022/09/10 03:48:24;;;;;;;3.25;1.00;;;12.80;95.90;;;;;;5022138;28;20415;-69
2022/09/10 03:50:50;;;;;;;3.17;1.05;;;12.80;95.00;;;;;;5025251;28;20033;-68
2022/09/10 03:53:17;;;;;;;3.10;1.10;;;12.80;95.40;;;;;;5015136;28;20025;-69
2022/09/10 03:55:47;;;;;;;3.50;1.10;;;12.80;95.10;;;;;;5029207;28;20036;-69
2022/09/10 03:58:14;;;;;;;4.60;0.90;;;12.80;95.00;;;;;;5013652;28;20026;-68
2022/09/10 04:00:40;;;;;;;5.03;1.00;;;12.70;95.00;;;;;;5005347;28;20025;-68
2022/09/10 04:03:06;;;;;;;2.80;1.00;;;12.70;94.60;;;;;;5013147;28;20476;-68
2022/09/10 04:05:32;;;;;;;2.55;1.02;;;12.80;95.70;;;;;;5019660;28;20034;-68
2022/09/10 04:07:58;;;;;;;2.22;0.98;;;12.80;95.80;;;;;;4998893;28;20034;-68
2022/09/10 04:10:30;;;;;;;4.05;1.00;;;12.90;95.70;;;;;;5011741;28;20057;-68
2022/09/10 04:12:56;;;;;;;3.55;1.08;;;12.90;96.50;;;;;;5015456;28;20033;-68
2022/09/10 04:15:22;;;;;;;4.78;1.27;;;13.00;97.30;;;;;;5016622;28;20022;-68
2022/09/10 04:17:53;;;;;;;2.85;0.98;;;13.00;96.90;;;;;;5005929;28;20409;-68
2022/09/10 04:20:22;;;;;;;2.95;0.93;;;13.00;97.10;;;;;;5010391;28;20308;-68
2022/09/10 04:22:52;;;;;;;3.70;1.15;;;13.00;97.20;;;;;;5005700;28;20029;-68
2022/09/10 04:25:20;;;;;;;3.35;1.00;;;13.00;97.40;;;;;;5013727;28;20030;-68
2022/09/10 04:27:46;;;;;;;2.65;0.90;;;13.10;97.20;;;;;;4995177;28;20054;-68
2022/09/10 04:30:12;;;;;;;2.10;1.00;;;13.00;97.60;;;;;;5015778;28;20058;-68
2022/09/10 04:32:38;;;;;;;2.15;0.93;;;13.00;97.00;;;;;;4991623;28;20109;-68
2022/09/10 04:35:05;;;;;;;2.13;0.90;;;13.00;97.60;;;;;;5028953;28;20018;-68
2022/09/10 04:37:31;;;;;;;2.60;0.93;;;13.00;98.00;;;;;;4999376;28;20327;-68
2022/09/10 04:39:57;;;;;;;4.22;1.10;;;13.00;98.00;;;;;;5012545;28;20034;-68
2022/09/10 04:42:23;;;;;;;2.05;0.82;;;13.10;98.00;;;;;;4998483;28;20036;-68
2022/09/10 04:44:49;;;;;;;3.58;1.00;;;13.10;98.00;;;;;;5006316;28;20031;-68
2022/09/10 04:47:15;;;;;;;3.35;1.20;;;13.10;97.90;;;;;;5004137;28;20050;-68
2022/09/10 04:49:42;;;;;;;3.08;0.90;;;13.20;98.00;;;;;;5018404;28;20029;-68
2022/09/10 04:52:10;;;;;;;2.92;0.82;;;13.20;98.00;;;;;;5008090;28;20026;-68
2022/09/10 04:54:36;;;;;;;4.05;1.00;;;13.10;98.00;;;;;;5015444;28;20017;-68
2022/09/10 04:57:05;;;;;;;3.10;0.85;;;13.20;98.00;;;;;;4998670;28;20053;-68
2022/09/10 04:59:31;;;;;;;3.38;1.10;;;13.10;98.00;;;;;;5007743;28;20423;-68
2022/09/10 05:01:57;;;;;;;4.43;1.00;;;13.10;98.00;;;;;;5023345;28;20483;-68
2022/09/10 05:04:23;;;;;;;3.03;1.20;;;13.10;98.00;;;;;;5013510;28;20418;-68
2022/09/10 05:06:49;;;;;;;2.30;0.90;;;13.20;98.00;;;;;;5015698;28;20487;-68
2022/09/10 05:09:16;;;;;;;2.95;0.95;;;13.30;98.00;;;;;;5017948;28;20144;-68
2022/09/10 05:11:42;;;;;;;3.15;0.90;;;13.40;98.00;;;;;;5025854;28;20426;-67
2022/09/10 05:14:08;;;;;;;4.88;1.00;;;13.40;98.00;;;;;;5018060;28;20025;-68
2022/09/10 05:16:35;;;;;;;1.63;0.82;;;13.40;98.00;;;;;;5006182;28;20085;-68
2022/09/10 05:19:01;;;;;;;5.75;1.30;;;13.50;98.00;;;;;;5019587;28;20030;-68
2022/09/10 05:21:28;;;;;;;2.33;0.90;;;13.50;98.00;;;;;;5009590;28;20319;-68
2022/09/10 05:23:54;;;;;;;2.40;0.98;;;13.50;98.00;;;;;;5013063;28;20022;-68
2022/09/10 05:26:21;;;;;;;4.40;1.00;;;13.50;98.00;;;;;;5017189;28;20022;-68
2022/09/10 05:28:46;;;;;;;2.97;0.98;;;13.60;98.00;;;;;;5021553;28;20030;-67
2022/09/10 05:31:12;;;;;;;2.47;1.02;;;13.60;98.00;;;;;;5016691;28;20037;-68
2022/09/10 05:33:39;;;;;;;2.97;1.10;;;13.70;98.00;;;;;;5019840;28;20026;-68
2022/09/10 05:36:07;;;;;;;2.65;0.93;;;13.70;98.00;;;;;;5008485;28;20048;-68
2022/09/10 05:38:34;;;;;;;2.90;0.88;;;13.70;98.00;;;;;;5005446;28;20018;-68
2022/09/10 05:41:00;;;;;;;4.15;1.00;;;13.70;98.00;;;;;;5003928;28;20030;-68
2022/09/10 05:43:26;;;;;;;1.38;0.80;;;13.70;98.00;;;;;;5014047;28;20033;-68
2022/09/10 05:45:52;;;;;;;3.83;0.98;;;13.80;98.00;;;;;;5037353;28;20025;-68
2022/09/10 05:48:18;;;;;;;3.67;1.15;;;13.80;98.00;;;;;;5017300;28;20030;-68
2022/09/10 05:50:44;;;;;;;2.85;1.00;;;13.90;97.60;;;;;;5017969;28;20080;-68
2022/09/10 05:53:10;;;;;;;3.65;0.80;;;13.90;97.80;;;;;;5004537;28;20029;-67
2022/09/10 05:55:36;;;;;;;2.75;1.00;;;13.90;97.80;;;;;;5025217;28;20030;-68
2022/09/10 05:58:02;;;;;;;2.35;1.00;;;14.00;97.80;;;;;;5023268;28;20038;-68
2022/09/10 06:00:28;;;;;;;3.10;1.10;;;14.10;97.10;;;;;;5013834;28;20659;-68
2022/09/10 06:02:55;;;;;;;2.45;0.77;;;14.10;97.30;;;;;;5016407;28;20037;-68
2022/09/10 06:05:22;;;;;;;2.58;0.90;;;14.10;97.00;;;;;;5002105;28;20072;-67
2022/09/10 06:07:48;;;;;;;3.20;0.90;;;14.10;96.80;;;;;;4998200;28;20113;-67
2022/09/10 06:10:17;;;;;;;2.53;0.80;;;14.20;97.00;;;;;;5004986;28;20026;-68
2022/09/10 06:12:46;;;;;;;6.05;1.13;;;14.20;96.70;;;;;;5026699;28;20049;-67
2022/09/10 06:15:12;;;;;;;2.92;0.90;;;14.30;96.60;;;;;;5005283;28;20080;-67
2022/09/10 06:17:38;;;;;;;2.28;0.80;;;14.40;96.20;;;;;;5026442;28;20030;-68
2022/09/10 06:20:05;;;;;;;1.80;0.80;;;14.40;96.40;;;;;;5006795;28;20033;-67
2022/09/10 06:22:30;;;;;;;2.35;0.73;;;14.50;95.30;;;;;;5014403;28;20054;-68
2022/09/10 06:24:56;;;;;;;3.65;0.80;;;14.60;95.40;;;;;;5015365;28;20061;-67
2022/09/10 06:27:22;;;;;;;2.08;0.90;;;14.60;95.40;;;;;;5015628;28;20030;-66
2022/09/10 06:29:48;;;;;;;5.75;1.08;;;14.70;95.60;;;;;;5006811;28;20033;-67
2022/09/10 06:32:17;;;;;;;2.28;0.70;;;14.80;95.30;;;;;;5011652;28;20048;-68
2022/09/10 06:34:42;;;;;;;2.03;0.80;;;14.80;95.10;;;;;;5007309;28;20030;-68
2022/09/10 06:37:08;;;;;;;2.28;0.80;;;15.00;95.30;;;;;;5012823;28;20105;-68
2022/09/10 06:39:36;;;;;;;2.00;0.75;;;15.20;94.30;;;;;;5009407;28;20034;-68
2022/09/10 06:42:02;;;;;;;2.35;0.73;;;15.30;94.00;;;;;;5009149;28;20034;-67
2022/09/10 06:44:28;;;;;;;2.75;0.60;;;15.40;93.90;;;;;;4992521;28;20109;-68
2022/09/10 06:46:54;;;;;;;2.63;0.60;;;15.60;93.30;;;;;;5006074;28;20503;-67
2022/09/10 06:49:23;;;;;;;2.15;0.80;;;15.70;91.90;;;;;;5006320;28;20017;-67
2022/09/10 06:51:49;;;;;;;2.55;0.90;;;15.60;92.10;;;;;;5032363;28;20315;-68
2022/09/10 06:54:16;;;;;;;3.35;0.70;;;15.40;92.50;;;;;;5013972;28;20026;-68
2022/09/10 06:56:42;;;;;;;1.55;0.70;;;15.20;93.00;;;;;;5016136;28;20087;-68
2022/09/10 06:59:08;;;;;;;2.30;0.70;;;15.20;93.40;;;;;;4997786;28;20144;-67
2022/09/10 07:01:37;;;;;;;1.15;0.60;;;15.00;93.70;;;;;;5004660;28;20108;-68
2022/09/10 07:04:05;;;;;;;2.30;0.80;;;14.90;94.30;;;;;;5013096;28;20052;-68
2022/09/10 07:06:33;;;;;;;1.48;0.90;;;14.70;95.00;;;;;;5023357;28;20030;-68
2022/09/10 07:08:59;;;;;;;2.08;0.70;;;14.60;95.30;;;;;;5015165;28;20084;-67
2022/09/10 07:11:30;;;;;;;1.38;0.70;;;14.60;95.20;;;;;;4996987;28;20050;-67
2022/09/10 07:13:57;;;;;;;4.55;0.77;;;14.40;95.70;;;;;;5013188;28;20025;-67
2022/09/10 07:16:24;;;;;;;1.80;0.70;;;14.50;95.80;;;;;;5012063;28;20129;-68
2022/09/10 07:18:53;;;;;;;1.60;0.60;;;14.50;95.70;;;;;;4996835;28;20324;-67
2022/09/10 07:21:20;;;;;;;1.40;0.63;;;14.60;95.90;;;;;;5014920;28;20530;-68
2022/09/10 07:23:47;;;;;;;4.43;0.90;;;14.70;95.80;;;;;;5008996;28;20025;-68
2022/09/10 07:26:15;;;;;;;4.53;0.70;;;14.60;96.00;;;;;;4999175;28;20034;-68
2022/09/10 07:28:43;;;;;;;2.45;1.02;;;14.50;96.70;;;;;;5002574;28;20026;-67
2022/09/10 07:31:13;;;;;;;1.70;0.70;;;14.10;98.00;;;;;;5026379;28;20118;-68
2022/09/10 07:33:39;;;;;;;2.42;0.80;;;13.80;98.00;;;;;;5022398;28;20022;-67
2022/09/10 07:36:08;;;;;;;2.60;0.80;;;13.80;98.00;;;;;;5014256;28;20026;-67
2022/09/10 07:38:35;;;;;;;1.63;0.80;;;14.00;97.70;;;;;;5015980;28;20030;-68
2022/09/10 07:41:01;;;;;;;2.10;0.70;;;14.20;98.00;;;;;;5026713;28;20427;-68
2022/09/10 07:43:28;;;;;;;2.15;0.75;;;14.40;98.00;;;;;;5005885;28;20084;-68
2022/09/10 07:45:53;;;;;;;5.78;0.95;;;14.60;97.20;;;;;;5021060;28;20061;-68
2022/09/10 07:48:19;;;;;;;1.58;0.60;;;14.70;97.60;;;;;;5015706;28;20029;-68
2022/09/10 07:50:45;;;;;;;1.90;0.77;;;14.80;97.50;;;;;;5013179;28;20026;-68
2022/09/10 07:53:10;;;;;;;1.58;0.70;;;15.10;97.10;;;;;;5015886;28;20026;-68
2022/09/10 07:55:36;;;;;;;3.00;0.80;;;15.30;96.80;;;;;;5030586;28;20034;-68
2022/09/10 07:58:02;;;;;;;3.45;0.70;;;15.20;96.30;;;;;;5027304;28;20038;-67
2022/09/10 08:00:28;;;;;;;1.38;0.75;;;15.20;96.80;;;;;;5014492;28;20026;-67
2022/09/10 08:02:54;;;;;;;1.42;0.70;;;15.10;96.90;;;;;;5026074;28;20312;-68
2022/09/10 08:05:19;;;;;;;2.38;0.73;;;15.10;96.70;;;;;;5017489;28;20049;-68
2022/09/10 08:07:45;;;;;;;3.17;0.80;;;15.20;96.50;;;;;;5018475;28;20038;-67
2022/09/10 08:10:12;;;;;;;3.55;0.90;;;15.20;96.20;;;;;;5020837;28;20034;-67
2022/09/10 08:12:39;;;;;;;3.08;0.68;;;15.30;95.80;;;;;;5003495;28;20062;-68
2022/09/10 08:15:06;;;;;;;2.88;0.77;;;15.90;94.80;;;;;;5011843;28;20025;-68
2022/09/10 08:17:35;;;;;;;1.58;0.60;;;17.20;93.10;;;;;;5028511;28;20029;-68
2022/09/10 08:20:02;;;;;;;2.95;1.02;;;18.00;90.30;;;;;;5015282;28;20030;-68
2022/09/10 08:22:27;;;;;;;2.15;0.70;;;18.90;86.20;;;;;;5015221;28;20037;-68
2022/09/10 08:24:54;;;;;;;3.33;0.90;;;19.40;85.70;;;;;;5018111;28;20030;-68
2022/09/10 08:27:22;;;;;;;5.85;0.90;;;20.10;84.30;;;;;;5036686;28;20029;-68
2022/09/10 08:29:48;;;;;;;7.38;1.52;;;20.50;80.30;;;;;;5020595;28;20049;-68
2022/09/10 08:32:17;;;;;;;2.15;0.80;;;20.30;80.20;;;;;;5021776;28;20393;-68
2022/09/10 08:34:43;;;;;;;3.10;0.93;;;19.70;81.30;;;;;;5023762;28;20444;-68
2022/09/10 08:37:08;;;;;;;4.45;0.85;;;19.10;82.90;;;;;;5030030;28;20037;-68
2022/09/10 08:39:36;;;;;;;2.75;0.75;;;18.80;84.50;;;;;;5024911;28;20136;-67
2022/09/10 08:42:19;;;;;;;3.33;0.77;;;18.40;85.20;;;;;;4996071;28;20435;-68
2022/09/10 08:44:52;;;;;;;3.80;0.82;;;18.30;86.20;;;;;;5014942;28;20370;-67
2022/09/10 08:47:24;;;;;;;3.55;0.90;;;18.00;86.80;;;;;;5018155;28;20042;-68
2022/09/10 08:49:56;;;;;;;1.60;0.85;;;17.40;88.70;;;;;;5029622;28;20033;-68
2022/09/10 08:52:39;;;;;;;2.88;0.90;;;17.30;89.90;;;;;;5014322;28;20026;-68
2022/09/10 08:55:23;;;;;;;2.65;0.93;;;17.40;89.90;;;;;;5010343;28;20031;-68
2022/09/10 08:57:58;;;;;;;1.88;0.70;;;17.70;88.60;;;;;;5014380;28;20025;-68
2022/09/10 09:00:28;;;;;;;2.05;0.80;;;18.20;87.40;;;;;;5003862;28;20299;-68
2022/09/10 09:03:20;;;;;;;2.55;0.80;;;18.10;87.60;;;;;;5015194;28;20032;-68
2022/09/10 09:05:49;;;;;;;11.32;1.63;;;17.90;88.10;;;;;;5015869;28;20077;-67
2022/09/10 09:08:24;;;;;;;1.95;0.70;;;17.30;90.30;;;;;;5010570;28;20037;-68
2022/09/10 09:11:09;;;;;;;2.63;0.70;;;17.00;91.40;;;;;;5004086;28;20028;-68
2022/09/10 09:13:56;;;;;;;3.63;0.73;;;17.30;91.40;;;;;;5014006;28;20022;-67
2022/09/10 09:16:52;;;;;;;3.20;0.80;;;18.00;89.10;;;;;;5016196;28;20022;-66
2022/09/10 09:19:45;;;;;;;3.00;0.75;;;17.90;89.00;;;;;;5004529;28;20029;-65
2022/09/10 09:22:19;;;;;;;1.90;0.65;;;17.80;89.50;;;;;;5006378;28;20025;-66
2022/09/10 09:24:59;;;;;;;1.08;0.63;;;17.70;90.10;;;;;;5011105;28;20423;-66
2022/09/10 09:27:33;;;;;;;2.13;0.75;;;18.00;89.60;;;;;;5010622;28;20026;-68
2022/09/10 09:30:05;;;;;;;3.22;0.88;;;18.40;88.50;;;;;;5017732;28;20022;-68
2022/09/10 09:32:38;;;;;;;8.05;1.00;;;18.40;88.50;;;;;;5017127;28;20030;-69
2022/09/10 09:35:25;;;;;;;4.40;0.85;;;18.50;88.70;;;;;;5001975;28;20109;-67
2022/09/10 09:38:09;;;;;;;5.18;0.90;;;18.40;87.90;;;;;;5013929;28;20427;-68
2022/09/10 09:41:07;;;;;;;2.53;1.20;;;17.90;88.50;;;;;;5016939;28;20446;-68
2022/09/10 09:43:45;;;;;;;2.75;0.88;;;17.60;89.90;;;;;;4964269;28;20117;-68
2022/09/10 09:46:16;;;;;;;2.58;0.90;;;17.50;90.30;;;;;;5013545;28;20129;-67
2022/09/10 09:48:43;;;;;;;4.20;1.00;;;17.20;91.40;;;;;;5016820;28;20030;-67
2022/09/10 09:51:19;;;;;;;3.03;0.85;;;17.00;92.50;;;;;;5025908;28;20393;-68
2022/09/10 09:53:46;;;;;;;2.95;0.90;;;16.80;92.80;;;;;;5027470;28;20018;-68
2022/09/10 09:56:21;;;;;;;2.03;0.80;;;16.60;93.60;;;;;;5013550;28;20076;-68
2022/09/10 09:58:49;;;;;;;3.97;1.00;;;16.30;94.60;;;;;;5022292;28;20032;-68
2022/09/10 10:01:19;;;;;;;4.70;1.50;;;16.30;95.20;;;;;;5014903;28;20049;-67
2022/09/10 10:04:00;;;;;;;4.78;1.10;;;16.60;95.40;;;;;;5017051;28;20415;-68
2022/09/10 10:06:46;;;;;;;4.30;1.10;;;17.10;94.00;;;;;;5014374;28;20026;-67
2022/09/10 10:09:21;;;;;;;3.00;0.93;;;17.40;92.90;;;;;;5014637;28;20109;-67
2022/09/10 10:11:52;;;;;;;4.85;0.90;;;17.30;92.00;;;;;;5016586;28;20049;-67
2022/09/10 10:14:19;;;;;;;4.30;0.98;;;17.40;91.70;;;;;;5013819;28;20383;-68
2022/09/10 10:16:48;;;;;;;3.80;0.90;;;17.50;91.00;;;;;;5018859;28;20057;-68
2022/09/10 10:19:39;;;;;;;4.20;1.10;;;17.80;91.20;;;;;;5036907;28;20036;-67
2022/09/10 10:22:15;;;;;;;2.67;1.02;;;18.00;90.60;;;;;;5015821;28;20465;-68
2022/09/10 10:24:42;;;;;;;5.00;1.20;;;18.00;89.60;;;;;;5029639;28;20038;-68
2022/09/10 10:27:40;;;;;;;3.10;1.20;;;17.70;89.10;;;;;;5029384;28;20021;-68
2022/09/10 10:30:06;;;;;;;3.35;1.10;;;17.90;89.80;;;;;;5024352;28;20033;-68
2022/09/10 10:32:46;;;;;;;3.65;1.00;;;18.10;89.60;;;;;;5031057;28;20029;-67
2022/09/10 10:35:43;;;;;;;3.55;1.00;;;18.30;89.40;;;;;;5026047;28;20041;-67
2022/09/10 10:38:14;;;;;;;3.13;0.90;;;18.20;90.00;;;;;;5015475;28;20164;-68
2022/09/10 10:41:12;;;;;;;2.55;1.05;;;18.00;89.70;;;;;;5012028;28;20026;-68
2022/09/10 10:43:49;;;;;;;2.90;1.00;;;17.90;89.30;;;;;;5001502;28;20026;-67
2022/09/10 10:46:29;;;;;;;3.42;0.80;;;17.80;89.30;;;;;;5035936;28;20476;-66
2022/09/10 10:49:16;;;;;;;3.55;1.10;;;17.60;89.30;;;;;;5028666;28;20056;-68
2022/09/10 10:51:57;;;;;;;4.28;1.00;;;17.80;89.60;;;;;;5036212;28;20040;-68
2022/09/10 10:54:50;;;;;;;2.67;0.80;;;18.00;89.10;;;;;;5032883;28;20041;-67
2022/09/10 10:57:34;;;;;;;2.50;0.90;;;18.00;88.30;;;;;;5017330;28;20478;-67
2022/09/10 11:00:12;;;;;;;2.88;1.00;;;17.80;88.10;;;;;;5016713;28;20053;-67
2022/09/10 11:02:56;;;;;;;2.72;1.00;;;17.20;88.80;;;;;;4996697;28;20030;-67
2022/09/10 11:05:34;;;;;;;3.25;1.13;;;16.80;92.00;;;;;;5012535;28;20038;-68
2022/09/10 11:08:26;;;;;;;3.53;1.10;;;16.40;93.10;;;;;;5013490;28;20304;-67
2022/09/10 11:11:01;;;;;;;2.53;1.00;;;16.70;93.40;;;;;;5013597;28;20307;-67
2022/09/10 11:13:59;;;;;;;4.40;1.17;;;17.10;89.90;;;;;;5013929;28;20050;-67
2022/09/10 11:16:35;;;;;;;3.95;1.20;;;17.40;88.40;;;;;;5017666;28;20124;-67
2022/09/10 11:19:22;;;;;;;4.75;1.73;;;18.00;86.60;;;;;;5024823;28;20026;-67
2022/09/10 11:21:57;;;;;;;7.07;1.90;;;18.60;86.40;;;;;;5022923;28;20025;-68
2022/09/10 11:24:34;;;;;;;3.60;1.23;;;19.70;84.20;;;;;;5022190;28;20022;-68
2022/09/10 11:27:10;;;;;;;2.75;1.00;;;21.10;80.20;;;;;;4993835;28;20030;-67
2022/09/10 11:30:05;;;;;;;3.67;1.10;;;21.40;77.10;;;;;;5015612;28;20029;-68
2022/09/10 11:33:14;;;;;;;1.75;0.75;;;21.50;76.20;;;;;;5007779;28;20046;-67
2022/09/10 11:36:01;;;;;;;3.95;1.30;;;20.20;77.30;;;;;;4981521;28;20033;-67
2022/09/10 11:38:47;;;;;;;5.45;2.53;;;19.10;81.30;;;;;;5015999;28;20026;-67
2022/09/10 11:41:18;;;;;;;4.15;1.38;;;18.30;87.90;;;;;;5009724;28;20034;-67
2022/09/10 11:44:21;;;;;;;6.07;2.05;;;17.80;88.50;;;;;;5021384;28;20044;-67
2022/09/10 11:47:13;;;;;;;7.25;1.52;;;17.70;88.70;;;;;;5032377;28;20042;-67
2022/09/10 11:49:53;;;;;;;5.47;1.52;;;17.40;89.30;;;;;;5022109;28;20021;-67
2022/09/10 11:52:21;;;;;;;5.75;1.60;;;17.60;88.80;;;;;;5015745;28;20033;-67
2022/09/10 11:54:47;;;;;;;5.55;1.75;;;17.70;88.00;;;;;;5027998;28;20143;-67
2022/09/10 11:57:18;;;;;;;3.65;1.27;;;17.70;89.00;;;;;;5027173;28;20431;-67
2022/09/10 12:00:10;;;;;;;4.72;1.48;;;17.80;87.70;;;;;;5031676;28;20125;-67
2022/09/10 12:03:03;;;;;;;3.53;0.90;;;18.10;86.70;;;;;;5017496;28;20346;-67
2022/09/10 12:05:34;;;;;;;3.55;1.33;;;18.10;83.20;;;;;;5014218;28;20036;-67
2022/09/10 12:08:25;;;;;;;2.05;0.80;;;18.10;83.50;;;;;;5014504;28;20036;-67
2022/09/10 12:11:14;;;;;;;5.88;1.33;;;17.80;84.00;;;;;;5015523;28;20018;-67
2022/09/10 12:13:49;;;;;;;3.75;1.02;;;17.70;84.40;;;;;;5014480;28;20419;-65
2022/09/10 12:16:18;;;;;;;4.07;1.10;;;17.70;84.80;;;;;;5004682;28;20038;-66
2022/09/10 12:18:50;;;;;;;3.97;0.90;;;17.90;84.20;;;;;;5016173;28;20026;-66
2022/09/10 12:21:31;;;;;;;4.40;1.13;;;18.30;81.60;;;;;;5012785;28;20034;-67
2022/09/10 12:24:00;;;;;;;3.17;1.00;;;18.40;82.00;;;;;;5015802;28;20326;-66
2022/09/10 12:26:27;;;;;;;3.75;1.50;;;18.60;80.90;;;;;;5013579;28;20111;-68
2022/09/10 12:29:00;;;;;;;2.72;1.08;;;18.50;81.90;;;;;;5013550;28;20437;-67
2022/09/10 12:31:26;;;;;;;4.93;1.25;;;18.10;82.10;;;;;;5014948;28;20037;-67
2022/09/10 12:33:53;;;;;;;5.75;1.27;;;18.10;83.70;;;;;;5017529;28;20014;-67
2022/09/10 12:36:24;;;;;;;5.50;1.40;;;18.00;83.50;;;;;;5000183;28;20092;-67
2022/09/10 12:39:15;;;;;;;4.35;1.10;;;17.90;83.50;;;;;;5015186;28;20042;-67
2022/09/10 12:41:43;;;;;;;3.67;0.90;;;17.60;84.40;;;;;;5017404;28;20076;-67
2022/09/10 12:44:33;;;;;;;3.17;1.15;;;17.40;85.10;;;;;;5016119;28;20025;-67
2022/09/10 12:47:26;;;;;;;4.28;1.00;;;17.20;86.40;;;;;;5012774;28;20054;-67
2022/09/10 12:50:05;;;;;;;2.75;1.08;;;17.00;86.80;;;;;;5013787;28;20026;-68
2022/09/10 12:52:34;;;;;;;2.72;0.90;;;16.80;89.30;;;;;;5009512;28;20060;-68
2022/09/10 12:55:07;;;;;;;3.08;1.13;;;16.60;90.60;;;;;;5014773;28;20049;-68
2022/09/10 12:58:10;;;;;;;3.45;0.90;;;16.50;91.10;;;;;;5012133;28;20017;-68
2022/09/10 13:01:07;;;;;;;3.28;1.10;;;16.60;91.90;;;;;;4997281;28;20036;-67
2022/09/10 13:03:33;;;;;;;4.20;0.98;;;16.70;90.90;;;;;;5010631;28;20046;-66
2022/09/10 13:06:03;;;;;;;3.15;1.10;;;16.70;90.80;;;;;;5016324;28;20029;-67
2022/09/10 13:08:43;;;;;;;2.45;0.80;;;16.80;90.30;;;;;;5015250;28;20104;-67
2022/09/10 13:11:18;;;;;;;3.40;1.20;;;16.80;90.10;;;;;;5011293;28;20029;-68
2022/09/10 13:13:53;;;;;;;4.28;1.17;;;16.70;90.60;;;;;;5016241;28;20033;-67